createdAt,value
2022-08-26T00:00:45.287Z,0.00
2022-08-26T00:01:45.363Z,0.00
2022-08-26T00:02:45.292Z,0.00
2022-08-26T00:03:45.305Z,0.00
2022-08-26T00:04:45.260Z,0.00
2022-08-26T00:05:45.254Z,0.00
2022-08-26T00:06:46.277Z,0.00
2022-08-26T00:07:45.250Z,0.00
2022-08-26T00:08:45.224Z,0.00
2022-08-26T00:09:47.412Z,0.00
2022-08-26T00:10:45.211Z,0.00
2022-08-26T00:11:45.349Z,0.00
2022-08-26T00:12:45.226Z,0.00
2022-08-26T00:13:48.582Z,0.00
2022-08-26T00:14:45.171Z,0.00
2022-08-26T00:15:45.175Z,0.00
2022-08-26T00:16:47.952Z,0.00
2022-08-26T00:17:45.148Z,0.00
2022-08-26T00:18:45.136Z,0.00
2022-08-26T00:19:45.134Z,0.00
2022-08-26T00:20:45.127Z,0.00
2022-08-26T00:21:45.147Z,0.00
2022-08-26T00:22:45.109Z,0.00
2022-08-26T00:23:45.107Z,0.00
2022-08-26T00:24:47.922Z,0.00
2022-08-26T00:25:45.095Z,0.00
2022-08-26T00:26:45.113Z,0.00
2022-08-26T00:27:45.082Z,0.00
2022-08-26T00:28:45.063Z,0.00
2022-08-26T00:29:45.069Z,0.00
2022-08-26T00:30:45.041Z,0.00
2022-08-26T00:31:45.268Z,0.00
2022-08-26T00:32:46.358Z,0.00
2022-08-26T00:33:45.021Z,0.00
2022-08-26T00:34:45.004Z,0.00
2022-08-26T00:35:45.310Z,0.00
2022-08-26T00:36:45.021Z,0.00
2022-08-26T00:37:44.984Z,0.00
2022-08-26T00:38:44.974Z,0.00
2022-08-26T00:39:45.666Z,0.00
2022-08-26T00:40:44.968Z,0.00
2022-08-26T00:41:44.977Z,0.00
2022-08-26T00:42:46.044Z,0.00
2022-08-26T00:43:47.225Z,0.00
2022-08-26T00:44:44.929Z,0.00
2022-08-26T00:45:44.989Z,0.00
2022-08-26T00:46:46.947Z,0.00
2022-08-26T00:47:44.894Z,0.00
2022-08-26T00:49:16.803Z,0.00
2022-08-26T00:49:44.881Z,0.00
2022-08-26T00:50:44.871Z,0.00
2022-08-26T00:51:44.913Z,0.00
2022-08-26T00:52:44.859Z,0.00
2022-08-26T00:53:44.852Z,0.00
2022-08-26T00:54:44.851Z,0.00
2022-08-26T00:55:44.829Z,0.00
2022-08-26T00:56:44.849Z,0.00
2022-08-26T00:57:44.805Z,0.00
2022-08-26T00:58:45.804Z,0.00
2022-08-26T00:59:44.819Z,0.00
2022-08-26T01:00:45.260Z,0.00
2022-08-26T01:01:46.037Z,0.00
2022-08-26T01:02:46.813Z,0.00
2022-08-26T01:03:44.762Z,0.00
2022-08-26T01:04:44.751Z,0.00
2022-08-26T01:05:44.737Z,0.00
2022-08-26T01:06:44.763Z,0.00
2022-08-26T01:07:44.720Z,0.00
2022-08-26T01:08:44.715Z,0.00
2022-08-26T01:09:44.705Z,0.00
2022-08-26T01:10:44.704Z,0.00
2022-08-26T01:11:44.725Z,0.00
2022-08-26T01:12:44.678Z,0.00
2022-08-26T01:13:44.671Z,0.00
2022-08-26T01:14:46.407Z,0.00
2022-08-26T01:15:44.660Z,0.00
2022-08-26T01:16:44.704Z,0.00
2022-08-26T01:17:44.647Z,0.00
2022-08-26T01:18:45.626Z,0.00
2022-08-26T01:19:44.626Z,0.00
2022-08-26T01:20:44.626Z,0.00
2022-08-26T01:21:44.655Z,0.00
2022-08-26T01:22:44.605Z,0.00
2022-08-26T01:23:45.201Z,0.00
2022-08-26T01:24:44.606Z,0.00
2022-08-26T01:25:44.578Z,0.00
2022-08-26T01:26:44.592Z,0.00
2022-08-26T01:27:44.804Z,0.00
2022-08-26T01:28:44.557Z,0.00
2022-08-26T01:29:45.545Z,0.00
2022-08-26T01:30:44.535Z,0.00
2022-08-26T01:31:44.680Z,0.00
2022-08-26T01:32:44.525Z,0.00
2022-08-26T01:33:44.510Z,0.00
2022-08-26T01:34:44.505Z,0.00
2022-08-26T01:35:44.503Z,0.00
2022-08-26T01:36:47.939Z,0.00
2022-08-26T01:37:46.489Z,0.00
2022-08-26T01:38:44.470Z,0.00
2022-08-26T01:39:44.460Z,0.00
2022-08-26T01:40:44.454Z,0.00
2022-08-26T01:41:44.498Z,0.00
2022-08-26T01:42:44.436Z,0.00
2022-08-26T01:43:44.432Z,0.00
2022-08-26T01:44:44.425Z,0.00
2022-08-26T01:45:44.451Z,0.00
2022-08-26T01:46:44.431Z,0.00
2022-08-26T01:47:44.415Z,0.00
2022-08-26T01:48:44.386Z,0.00
2022-08-26T01:49:44.378Z,0.00
2022-08-26T01:50:44.374Z,0.00
2022-08-26T01:51:44.392Z,0.00
2022-08-26T01:52:44.364Z,0.00
2022-08-26T01:53:46.863Z,0.00
2022-08-26T01:54:46.342Z,0.00
2022-08-26T01:55:45.333Z,0.00
2022-08-26T01:56:44.349Z,0.00
2022-08-26T01:57:44.305Z,0.00
2022-08-26T01:58:44.295Z,0.00
2022-08-26T01:59:44.284Z,0.00
2022-08-26T02:00:44.302Z,0.00
2022-08-26T02:01:44.296Z,0.00
2022-08-26T02:02:44.263Z,0.00
2022-08-26T02:03:44.252Z,0.00
2022-08-26T02:04:44.291Z,0.00
2022-08-26T02:05:44.251Z,0.00
2022-08-26T02:06:44.256Z,0.00
2022-08-26T02:07:44.224Z,0.00
2022-08-26T02:08:44.204Z,0.00
2022-08-26T02:09:44.204Z,0.00
2022-08-26T02:10:44.185Z,0.00
2022-08-26T02:11:44.218Z,0.00
2022-08-26T02:12:44.179Z,0.00
2022-08-26T02:13:44.163Z,0.00
2022-08-26T02:14:44.509Z,0.00
2022-08-26T02:15:44.167Z,0.00
2022-08-26T02:16:44.259Z,0.00
2022-08-26T02:17:44.153Z,0.00
2022-08-26T02:18:44.122Z,0.00
2022-08-26T02:19:44.114Z,0.00
2022-08-26T02:20:44.102Z,0.00
2022-08-26T02:21:44.129Z,0.00
2022-08-26T02:22:45.085Z,0.00
2022-08-26T02:23:44.085Z,0.00
2022-08-26T02:24:44.067Z,0.00
2022-08-26T02:25:44.059Z,0.00
2022-08-26T02:26:44.064Z,0.00
2022-08-26T02:27:44.068Z,0.00
2022-08-26T02:28:44.052Z,0.00
2022-08-26T02:29:44.035Z,0.00
2022-08-26T02:30:44.026Z,0.00
2022-08-26T02:31:44.106Z,0.00
2022-08-26T02:32:44.035Z,0.00
2022-08-26T02:33:43.994Z,0.00
2022-08-26T02:34:43.980Z,0.00
2022-08-26T02:35:43.989Z,0.00
2022-08-26T02:36:43.969Z,0.00
2022-08-26T02:37:44.011Z,0.00
2022-08-26T02:38:43.951Z,0.00
2022-08-26T02:39:43.943Z,0.00
2022-08-26T02:40:43.966Z,0.00
2022-08-26T02:41:45.305Z,0.00
2022-08-26T02:42:43.950Z,0.00
2022-08-26T02:43:43.918Z,0.00
2022-08-26T02:44:43.902Z,0.00
2022-08-26T02:45:43.972Z,0.00
2022-08-26T02:46:46.757Z,0.00
2022-08-26T02:47:43.909Z,0.00
2022-08-26T02:48:43.875Z,0.00
2022-08-26T02:49:44.377Z,0.00
2022-08-26T02:50:43.850Z,0.00
2022-08-26T02:51:43.852Z,0.00
2022-08-26T02:52:43.859Z,0.00
2022-08-26T02:53:43.831Z,0.00
2022-08-26T02:54:43.817Z,0.00
2022-08-26T02:55:43.803Z,0.00
2022-08-26T02:56:43.807Z,0.00
2022-08-26T02:57:43.819Z,0.00
2022-08-26T02:58:43.807Z,0.00
2022-08-26T02:59:43.782Z,0.00
2022-08-26T03:00:53.113Z,0.00
2022-08-26T03:01:44.813Z,0.00
2022-08-26T03:02:43.783Z,0.00
2022-08-26T03:03:43.744Z,0.00
2022-08-26T03:04:58.134Z,0.00
2022-08-26T03:05:44.741Z,0.00
2022-08-26T03:06:43.727Z,0.00
2022-08-26T03:07:44.735Z,0.00
2022-08-26T03:08:43.733Z,0.00
2022-08-26T03:09:43.688Z,0.00
2022-08-26T03:10:43.709Z,0.00
2022-08-26T03:11:43.695Z,0.00
2022-08-26T03:12:43.703Z,0.00
2022-08-26T03:13:43.657Z,0.00
2022-08-26T03:14:43.652Z,0.00
2022-08-26T03:15:43.689Z,0.00
2022-08-26T03:16:43.627Z,0.00
2022-08-26T03:17:43.681Z,0.00
2022-08-26T03:18:43.619Z,0.00
2022-08-26T03:19:44.605Z,0.00
2022-08-26T03:20:43.994Z,0.00
2022-08-26T03:21:43.589Z,0.00
2022-08-26T03:22:43.611Z,0.00
2022-08-26T03:23:43.587Z,0.00
2022-08-26T03:24:46.189Z,0.00
2022-08-26T03:25:43.556Z,0.00
2022-08-26T03:26:52.125Z,0.00
2022-08-26T03:27:44.566Z,0.00
2022-08-26T03:28:43.535Z,0.00
2022-08-26T03:29:43.517Z,0.00
2022-08-26T03:30:45.464Z,0.00
2022-08-26T03:31:43.562Z,0.00
2022-08-26T03:32:43.523Z,0.00
2022-08-26T03:33:43.496Z,0.00
2022-08-26T03:34:43.494Z,0.00
2022-08-26T03:35:43.492Z,0.00
2022-08-26T03:36:43.463Z,0.00
2022-08-26T03:37:43.479Z,0.00
2022-08-26T03:38:43.461Z,0.00
2022-08-26T03:39:43.437Z,0.00
2022-08-26T03:40:43.444Z,0.00
2022-08-26T03:41:43.418Z,0.00
2022-08-26T03:42:45.331Z,0.00
2022-08-26T03:43:43.408Z,0.00
2022-08-26T03:44:43.394Z,0.00
2022-08-26T03:45:43.383Z,0.00
2022-08-26T03:46:43.976Z,0.00
2022-08-26T03:47:43.394Z,0.00
2022-08-26T03:48:43.359Z,0.00
2022-08-26T03:49:43.354Z,0.00
2022-08-26T03:50:43.363Z,4.00
2022-08-26T03:51:43.346Z,4.00
2022-08-26T03:52:44.194Z,0.00
2022-08-26T03:53:44.316Z,4.00
2022-08-26T03:54:43.550Z,0.00
2022-08-26T03:55:43.367Z,4.00
2022-08-26T03:56:43.291Z,4.00
2022-08-26T03:57:43.318Z,4.00
2022-08-26T03:58:43.284Z,8.00
2022-08-26T03:59:43.268Z,8.00
2022-08-26T04:00:43.262Z,8.00
2022-08-26T04:01:43.326Z,12.00
2022-08-26T04:02:43.325Z,12.00
2022-08-26T04:03:43.265Z,16.00
2022-08-26T04:04:43.229Z,16.00
2022-08-26T04:05:43.225Z,24.00
2022-08-26T04:06:43.219Z,24.00
2022-08-26T04:07:43.244Z,32.00
2022-08-26T04:08:43.198Z,36.00
2022-08-26T04:09:43.197Z,40.00
2022-08-26T04:10:43.182Z,48.00
2022-08-26T04:11:43.194Z,56.00
2022-08-26T04:12:43.204Z,64.00
2022-08-26T04:13:43.179Z,76.00
2022-08-26T04:14:43.165Z,84.00
2022-08-26T04:15:43.182Z,100.00
2022-08-26T04:16:43.131Z,112.00
2022-08-26T04:17:43.148Z,128.00
2022-08-26T04:18:46.771Z,144.00
2022-08-26T04:19:43.111Z,160.00
2022-08-26T04:20:43.103Z,180.00
2022-08-26T04:21:43.102Z,200.00
2022-08-26T04:22:43.115Z,220.00
2022-08-26T04:23:47.625Z,244.00
2022-08-26T04:24:44.085Z,268.00
2022-08-26T04:25:43.055Z,288.00
2022-08-26T04:26:43.883Z,316.00
2022-08-26T04:27:43.042Z,344.00
2022-08-26T04:28:43.057Z,368.00
2022-08-26T04:29:43.023Z,392.00
2022-08-26T04:30:43.009Z,412.00
2022-08-26T04:31:43.073Z,432.00
2022-08-26T04:32:43.003Z,456.00
2022-08-26T04:33:43.028Z,484.00
2022-08-26T04:34:42.973Z,516.00
2022-08-26T04:35:43.599Z,548.00
2022-08-26T04:36:42.958Z,580.00
2022-08-26T04:37:43.128Z,612.00
2022-08-26T04:38:42.972Z,652.00
2022-08-26T04:39:42.935Z,692.00
2022-08-26T04:40:42.922Z,728.00
2022-08-26T04:41:42.931Z,772.00
2022-08-26T04:42:42.908Z,812.00
2022-08-26T04:43:42.927Z,856.00
2022-08-26T04:44:42.892Z,892.00
2022-08-26T04:45:42.993Z,932.00
2022-08-26T04:46:43.855Z,960.00
2022-08-26T04:47:42.871Z,992.00
2022-08-26T04:48:42.882Z,1036.00
2022-08-26T04:49:42.861Z,1096.00
2022-08-26T04:50:43.011Z,1156.00
2022-08-26T04:51:43.910Z,1220.00
2022-08-26T04:52:42.827Z,1280.00
2022-08-26T04:53:42.847Z,1340.00
2022-08-26T04:54:42.828Z,1404.00
2022-08-26T04:55:44.982Z,1456.00
2022-08-26T04:56:43.126Z,1508.00
2022-08-26T04:57:42.869Z,1552.00
2022-08-26T04:58:42.809Z,1600.00
2022-08-26T04:59:42.767Z,1680.00
2022-08-26T05:00:42.760Z,1744.00
2022-08-26T05:01:42.816Z,1816.00
2022-08-26T05:02:42.771Z,1892.00
2022-08-26T05:03:42.761Z,1980.00
2022-08-26T05:04:42.748Z,2068.00
2022-08-26T05:05:42.718Z,2168.00
2022-08-26T05:06:42.741Z,2292.00
2022-08-26T05:07:42.804Z,2420.00
2022-08-26T05:08:42.693Z,2548.00
2022-08-26T05:09:42.685Z,2652.00
2022-08-26T05:10:42.690Z,2732.00
2022-08-26T05:11:42.667Z,2796.00
2022-08-26T05:12:42.685Z,2852.00
2022-08-26T05:13:42.651Z,2900.00
2022-08-26T05:14:42.637Z,2956.00
2022-08-26T05:15:42.733Z,3016.00
2022-08-26T05:16:42.648Z,3080.00
2022-08-26T05:17:42.651Z,3140.00
2022-08-26T05:18:42.620Z,3192.00
2022-08-26T05:19:42.804Z,3240.00
2022-08-26T05:20:42.612Z,3328.00
2022-08-26T05:21:42.593Z,3396.00
2022-08-26T05:22:42.618Z,3500.00
2022-08-26T05:23:42.575Z,3652.00
2022-08-26T05:24:42.559Z,3864.00
2022-08-26T05:25:42.562Z,4020.00
2022-08-26T05:26:44.810Z,4112.00
2022-08-26T05:27:42.566Z,4172.00
2022-08-26T05:28:42.548Z,4228.00
2022-08-26T05:29:42.545Z,4292.00
2022-08-26T05:30:42.537Z,4296.00
2022-08-26T05:31:42.513Z,4288.00
2022-08-26T05:32:42.554Z,4268.00
2022-08-26T05:33:42.473Z,4220.00
2022-08-26T05:34:43.032Z,4036.00
2022-08-26T05:35:42.470Z,3968.00
2022-08-26T05:36:42.461Z,4024.00
2022-08-26T05:37:42.517Z,4068.00
2022-08-26T05:38:42.473Z,4072.00
2022-08-26T05:39:43.579Z,4072.00
2022-08-26T05:40:43.449Z,4068.00
2022-08-26T05:41:42.411Z,4052.00
2022-08-26T05:42:42.497Z,4040.00
2022-08-26T05:43:42.401Z,4012.00
2022-08-26T05:44:54.057Z,3964.00
2022-08-26T05:45:45.952Z,3956.00
2022-08-26T05:46:44.087Z,3888.00
2022-08-26T05:47:42.385Z,3840.00
2022-08-26T05:48:44.286Z,3776.00
2022-08-26T05:49:43.789Z,3668.00
2022-08-26T05:50:43.340Z,3572.00
2022-08-26T05:51:42.321Z,3496.00
2022-08-26T05:52:42.346Z,3428.00
2022-08-26T05:53:43.882Z,3400.00
2022-08-26T05:54:43.317Z,3404.00
2022-08-26T05:55:43.296Z,3432.00
2022-08-26T05:56:42.283Z,3488.00
2022-08-26T05:57:42.859Z,3560.00
2022-08-26T05:58:42.265Z,3620.00
2022-08-26T05:59:42.274Z,3668.00
2022-08-26T06:00:42.251Z,3732.00
2022-08-26T06:01:42.309Z,3836.00
2022-08-26T06:02:42.443Z,4004.00
2022-08-26T06:03:42.223Z,4256.00
2022-08-26T06:04:42.218Z,4424.00
2022-08-26T06:05:42.210Z,4500.00
2022-08-26T06:06:43.268Z,4540.00
2022-08-26T06:07:42.229Z,4588.00
2022-08-26T06:08:42.183Z,4648.00
2022-08-26T06:09:42.197Z,4652.00
2022-08-26T06:10:42.166Z,4720.00
2022-08-26T06:11:42.158Z,4852.00
2022-08-26T06:12:42.180Z,4972.00
2022-08-26T06:13:42.143Z,5100.00
2022-08-26T06:14:42.139Z,5212.00
2022-08-26T06:15:42.219Z,5800.00
2022-08-26T06:16:42.115Z,5444.00
2022-08-26T06:17:42.154Z,5476.00
2022-08-26T06:18:42.107Z,5796.00
2022-08-26T06:19:42.089Z,6468.00
2022-08-26T06:20:42.102Z,6708.00
2022-08-26T06:22:07.320Z,7112.00
2022-08-26T06:22:42.095Z,9712.00
2022-08-26T06:23:42.055Z,8120.00
2022-08-26T06:24:42.111Z,12528.00
2022-08-26T06:25:42.051Z,12568.00
2022-08-26T06:26:42.770Z,12036.00
2022-08-26T06:27:42.041Z,9908.00
2022-08-26T06:28:43.654Z,12444.00
2022-08-26T06:29:42.027Z,14028.00
2022-08-26T06:30:42.027Z,14456.00
2022-08-26T06:31:42.002Z,14732.00
2022-08-26T06:32:42.013Z,15936.00
2022-08-26T06:33:43.234Z,16640.00
2022-08-26T06:34:41.981Z,17248.00
2022-08-26T06:35:41.972Z,17856.00
2022-08-26T06:36:41.963Z,18112.00
2022-08-26T06:37:41.969Z,17952.00
2022-08-26T06:38:41.975Z,17376.00
2022-08-26T06:39:41.940Z,18912.00
2022-08-26T06:40:41.929Z,19616.00
2022-08-26T06:41:43.468Z,19072.00
2022-08-26T06:42:42.913Z,20192.00
2022-08-26T06:43:41.926Z,21024.00
2022-08-26T06:44:44.712Z,20768.00
2022-08-26T06:45:41.888Z,20800.00
2022-08-26T06:46:41.923Z,21952.00
2022-08-26T06:47:41.876Z,16228.00
2022-08-26T06:49:13.796Z,23584.00
2022-08-26T06:49:41.850Z,24704.00
2022-08-26T06:50:41.837Z,26080.00
2022-08-26T06:51:41.847Z,26496.00
2022-08-26T06:52:41.825Z,25536.00
2022-08-26T06:53:41.846Z,24256.00
2022-08-26T06:54:41.805Z,26176.00
2022-08-26T06:55:41.799Z,25664.00
2022-08-26T06:56:41.806Z,26080.00
2022-08-26T06:57:41.781Z,30656.00
2022-08-26T06:58:41.882Z,44192.00
2022-08-26T06:59:41.773Z,46720.00
2022-08-26T07:00:41.761Z,49568.00
2022-08-26T07:01:42.861Z,59424.00
2022-08-26T07:02:41.837Z,75232.00
2022-08-26T07:03:42.767Z,75328.00
2022-08-26T07:04:41.736Z,59648.00
2022-08-26T07:05:41.733Z,50560.00
2022-08-26T07:06:43.118Z,48192.00
2022-08-26T07:07:41.704Z,47168.00
2022-08-26T07:08:41.726Z,36288.00
2022-08-26T07:09:41.679Z,26848.00
2022-08-26T07:10:41.679Z,20224.00
2022-08-26T07:11:41.670Z,17352.00
2022-08-26T07:12:42.664Z,18400.00
2022-08-26T07:13:41.702Z,33024.00
2022-08-26T07:14:41.653Z,37888.00
2022-08-26T07:15:42.676Z,38048.00
2022-08-26T07:16:41.636Z,38368.00
2022-08-26T07:17:41.637Z,38400.00
2022-08-26T07:18:41.649Z,38656.00
2022-08-26T07:19:41.616Z,38272.00
2022-08-26T07:20:42.319Z,36672.00
2022-08-26T07:21:41.667Z,31808.00
2022-08-26T07:22:41.587Z,31552.00
2022-08-26T07:23:41.612Z,31584.00
2022-08-26T07:24:42.483Z,32512.00
2022-08-26T07:25:41.567Z,30912.00
2022-08-26T07:26:43.045Z,31104.00
2022-08-26T07:27:41.554Z,27552.00
2022-08-26T07:28:41.560Z,30944.00
2022-08-26T07:29:42.540Z,32160.00
2022-08-26T07:30:41.544Z,25472.00
2022-08-26T07:31:42.792Z,29664.00
2022-08-26T07:32:41.515Z,35104.00
2022-08-26T07:33:41.538Z,36832.00
2022-08-26T07:34:41.929Z,37408.00
2022-08-26T07:35:41.494Z,36320.00
2022-08-26T07:36:41.483Z,36064.00
2022-08-26T07:37:41.477Z,36480.00
2022-08-26T07:38:41.493Z,37216.00
2022-08-26T07:39:41.459Z,38048.00
2022-08-26T07:40:41.450Z,38656.00
2022-08-26T07:41:41.442Z,40320.00
2022-08-26T07:42:41.441Z,40096.00
2022-08-26T07:43:41.467Z,40384.00
2022-08-26T07:44:41.424Z,41728.00
2022-08-26T07:45:41.422Z,41152.00
2022-08-26T07:46:42.425Z,36960.00
2022-08-26T07:47:41.399Z,40128.00
2022-08-26T07:48:41.387Z,41344.00
2022-08-26T07:49:41.461Z,42464.00
2022-08-26T07:50:50.256Z,40416.00
2022-08-26T07:51:42.368Z,38720.00
2022-08-26T07:52:41.358Z,35712.00
2022-08-26T07:53:41.382Z,36800.00
2022-08-26T07:54:41.340Z,41280.00
2022-08-26T07:55:41.346Z,44896.00
2022-08-26T07:56:41.376Z,42176.00
2022-08-26T07:57:41.346Z,42400.00
2022-08-26T07:58:41.337Z,41024.00
2022-08-26T07:59:41.336Z,42304.00
2022-08-26T08:00:41.399Z,42432.00
2022-08-26T08:01:41.503Z,43200.00
2022-08-26T08:02:41.350Z,43680.00
2022-08-26T08:03:41.355Z,43712.00
2022-08-26T08:04:41.326Z,43776.00
2022-08-26T08:05:41.449Z,44096.00
2022-08-26T08:06:41.300Z,44832.00
2022-08-26T08:07:45.392Z,47456.00
2022-08-26T08:08:41.266Z,58880.00
2022-08-26T08:09:41.306Z,64384.00
2022-08-26T08:10:41.225Z,69600.00
2022-08-26T08:11:41.221Z,66208.00
2022-08-26T08:12:41.345Z,62368.00
2022-08-26T08:13:41.274Z,47872.00
2022-08-26T08:14:41.302Z,36928.00
2022-08-26T08:15:41.199Z,50592.00
2022-08-26T08:16:46.075Z,66656.00
2022-08-26T08:17:43.167Z,73952.00
2022-08-26T08:18:41.203Z,75968.00
2022-08-26T08:19:41.161Z,80416.00
2022-08-26T08:20:44.753Z,63520.00
2022-08-26T08:21:42.138Z,31488.00
2022-08-26T08:22:41.135Z,28032.00
2022-08-26T08:23:41.163Z,25952.00
2022-08-26T08:24:41.144Z,25440.00
2022-08-26T08:25:41.149Z,25216.00
2022-08-26T08:26:41.121Z,25856.00
2022-08-26T08:27:41.102Z,25824.00
2022-08-26T08:28:41.127Z,26048.00
2022-08-26T08:29:41.088Z,26816.00
2022-08-26T08:30:41.135Z,27328.00
2022-08-26T08:31:58.284Z,28160.00
2022-08-26T08:32:43.071Z,30464.00
2022-08-26T08:33:41.098Z,68000.00
2022-08-26T08:35:41.044Z,31616.00
2022-08-26T08:36:41.070Z,33504.00
2022-08-26T08:37:41.034Z,36928.00
2022-08-26T08:38:41.063Z,61184.00
2022-08-26T08:39:41.024Z,73824.00
2022-08-26T08:40:41.013Z,76864.00
2022-08-26T08:41:41.002Z,69664.00
2022-08-26T08:42:41.037Z,42688.00
2022-08-26T08:43:41.014Z,34016.00
2022-08-26T08:44:40.989Z,28672.00
2022-08-26T08:45:41.021Z,26752.00
2022-08-26T08:46:40.959Z,26688.00
2022-08-26T08:47:40.960Z,26912.00
2022-08-26T08:48:40.972Z,29472.00
2022-08-26T08:49:40.944Z,28544.00
2022-08-26T08:50:40.929Z,28672.00
2022-08-26T08:51:40.928Z,28544.00
2022-08-26T08:52:40.928Z,28736.00
2022-08-26T08:53:40.941Z,37824.00
2022-08-26T08:54:40.898Z,31680.00
2022-08-26T08:55:40.895Z,25920.00
2022-08-26T08:56:40.882Z,26080.00
2022-08-26T08:57:40.871Z,26976.00
2022-08-26T08:58:41.899Z,29184.00
2022-08-26T08:59:40.864Z,28448.00
2022-08-26T09:00:40.848Z,30048.00
2022-08-26T09:01:40.869Z,31456.00
2022-08-26T09:02:41.892Z,74688.00
2022-08-26T09:03:40.865Z,62976.00
2022-08-26T09:04:40.826Z,37024.00
2022-08-26T09:05:42.566Z,37088.00
2022-08-26T09:06:41.094Z,36416.00
2022-08-26T09:07:40.807Z,37472.00
2022-08-26T09:08:40.827Z,48256.00
2022-08-26T09:09:40.790Z,67104.00
2022-08-26T09:10:40.786Z,39200.00
2022-08-26T09:11:40.778Z,31328.00
2022-08-26T09:12:40.769Z,28160.00
2022-08-26T09:13:40.800Z,31488.00
2022-08-26T09:14:40.754Z,74144.00
2022-08-26T09:15:40.735Z,86560.00
2022-08-26T09:16:40.766Z,86816.00
2022-08-26T09:17:40.725Z,77184.00
2022-08-26T09:18:41.759Z,32096.00
2022-08-26T09:19:40.718Z,37856.00
2022-08-26T09:20:40.705Z,51488.00
2022-08-26T09:21:40.705Z,63488.00
2022-08-26T09:22:40.691Z,54048.00
2022-08-26T09:23:41.852Z,39744.00
2022-08-26T09:24:48.545Z,36704.00
2022-08-26T09:25:41.731Z,32384.00
2022-08-26T09:26:40.666Z,32544.00
2022-08-26T09:27:40.681Z,29888.00
2022-08-26T09:28:40.650Z,31264.00
2022-08-26T09:29:40.682Z,31936.00
2022-08-26T09:30:40.721Z,31712.00
2022-08-26T09:31:40.638Z,37120.00
2022-08-26T09:32:40.620Z,41312.00
2022-08-26T09:33:40.617Z,37600.00
2022-08-26T09:34:40.633Z,75456.00
2022-08-26T09:35:40.606Z,31232.00
2022-08-26T09:36:41.522Z,32832.00
2022-08-26T09:37:40.612Z,42080.00
2022-08-26T09:38:40.579Z,31616.00
2022-08-26T09:39:40.602Z,31232.00
2022-08-26T09:40:40.561Z,32864.00
2022-08-26T09:41:40.560Z,31232.00
2022-08-26T09:42:40.565Z,43168.00
2022-08-26T09:43:40.557Z,89664.00
2022-08-26T09:44:40.566Z,92480.00
2022-08-26T09:45:40.557Z,89664.00
2022-08-26T09:46:41.522Z,88640.00
2022-08-26T09:47:40.592Z,89056.00
2022-08-26T09:48:41.037Z,88288.00
2022-08-26T09:49:41.472Z,88032.00
2022-08-26T09:50:40.993Z,88960.00
2022-08-26T09:51:40.525Z,88384.00
2022-08-26T09:52:42.787Z,86752.00
2022-08-26T09:53:40.534Z,86688.00
2022-08-26T09:54:40.492Z,84992.00
2022-08-26T09:55:40.454Z,81088.00
2022-08-26T09:56:40.445Z,81440.00
2022-08-26T09:57:40.443Z,82272.00
2022-08-26T09:58:40.435Z,80128.00
2022-08-26T09:59:40.457Z,80352.00
2022-08-26T10:00:40.421Z,81440.00
2022-08-26T10:01:40.469Z,83808.00
2022-08-26T10:02:40.412Z,85248.00
2022-08-26T10:03:41.407Z,84736.00
2022-08-26T10:04:40.505Z,83872.00
2022-08-26T10:05:40.398Z,82720.00
2022-08-26T10:06:40.392Z,83200.00
2022-08-26T10:07:40.387Z,81696.00
2022-08-26T10:08:40.367Z,79040.00
2022-08-26T10:09:40.393Z,80416.00
2022-08-26T10:10:40.356Z,83392.00
2022-08-26T10:11:40.352Z,83264.00
2022-08-26T10:12:40.346Z,83328.00
2022-08-26T10:13:40.334Z,80416.00
2022-08-26T10:15:40.319Z,76832.00
2022-08-26T10:16:41.348Z,79552.00
2022-08-26T10:17:40.313Z,82944.00
2022-08-26T10:18:40.301Z,82176.00
2022-08-26T10:19:55.895Z,83456.00
2022-08-26T10:20:41.292Z,84064.00
2022-08-26T10:21:40.291Z,84288.00
2022-08-26T10:22:40.277Z,85984.00
2022-08-26T10:24:40.295Z,87936.00
2022-08-26T10:25:40.253Z,87008.00
2022-08-26T10:26:40.241Z,86240.00
2022-08-26T10:27:40.579Z,86528.00
2022-08-26T10:28:41.228Z,85248.00
2022-08-26T10:29:40.260Z,84320.00
2022-08-26T10:30:40.235Z,80704.00
2022-08-26T10:31:40.975Z,79520.00
2022-08-26T10:32:41.407Z,74592.00
2022-08-26T10:33:40.239Z,71712.00
2022-08-26T10:34:40.216Z,61184.00
2022-08-26T10:35:40.196Z,53792.00
2022-08-26T10:37:05.065Z,51840.00
2022-08-26T10:37:42.184Z,49664.00
2022-08-26T10:38:40.167Z,43232.00
2022-08-26T10:39:40.195Z,38784.00
2022-08-26T10:40:40.185Z,38080.00
2022-08-26T10:41:40.152Z,30240.00
2022-08-26T10:42:40.148Z,23968.00
2022-08-26T10:43:41.023Z,21664.00
2022-08-26T10:44:40.162Z,21056.00
2022-08-26T10:45:40.157Z,19648.00
2022-08-26T10:46:40.122Z,18208.00
2022-08-26T10:47:40.119Z,16992.00
2022-08-26T10:48:40.111Z,16428.00
2022-08-26T10:49:40.130Z,15840.00
2022-08-26T10:50:40.097Z,15424.00
2022-08-26T10:51:40.094Z,14604.00
2022-08-26T10:52:40.105Z,13812.00
2022-08-26T10:53:40.082Z,13340.00
2022-08-26T10:54:40.103Z,12964.00
2022-08-26T10:55:40.071Z,12644.00
2022-08-26T10:56:40.060Z,12464.00
2022-08-26T10:57:40.052Z,12340.00
2022-08-26T10:58:40.090Z,12304.00
2022-08-26T10:59:40.074Z,12392.00
2022-08-26T11:00:40.100Z,12368.00
2022-08-26T11:01:40.777Z,12416.00
2022-08-26T11:02:39.999Z,12552.00
2022-08-26T11:03:42.006Z,12644.00
2022-08-26T11:04:43.266Z,12584.00
2022-08-26T11:05:40.999Z,12584.00
2022-08-26T11:06:39.990Z,12684.00
2022-08-26T11:07:40.003Z,12760.00
2022-08-26T11:08:39.965Z,12732.00
2022-08-26T11:09:40.996Z,12120.00
2022-08-26T11:10:39.965Z,11680.00
2022-08-26T11:11:40.962Z,11388.00
2022-08-26T11:12:39.949Z,11016.00
2022-08-26T11:13:41.614Z,10872.00
2022-08-26T11:14:53.961Z,10876.00
2022-08-26T11:15:41.930Z,10688.00
2022-08-26T11:16:42.905Z,10404.00
2022-08-26T11:17:39.917Z,10260.00
2022-08-26T11:18:39.914Z,10260.00
2022-08-26T11:19:59.491Z,10328.00
2022-08-26T11:20:42.388Z,10388.00
2022-08-26T11:21:39.884Z,10388.00
2022-08-26T11:22:47.403Z,10380.00
2022-08-26T11:23:41.604Z,10388.00
2022-08-26T11:24:39.888Z,10400.00
2022-08-26T11:25:39.848Z,10428.00
2022-08-26T11:26:56.246Z,10456.00
2022-08-26T11:27:40.843Z,10488.00
2022-08-26T11:28:39.829Z,10520.00
2022-08-26T11:29:39.845Z,10504.00
2022-08-26T11:30:40.042Z,10408.00
2022-08-26T11:31:39.836Z,10288.00
2022-08-26T11:32:39.793Z,10196.00
2022-08-26T11:33:39.788Z,10008.00
2022-08-26T11:34:39.805Z,9876.00
2022-08-26T11:35:39.778Z,9636.00
2022-08-26T11:36:39.777Z,9408.00
2022-08-26T11:37:40.600Z,9160.00
2022-08-26T11:38:39.751Z,9028.00
2022-08-26T11:39:43.271Z,8896.00
2022-08-26T11:40:40.777Z,8808.00
2022-08-26T11:41:39.742Z,8736.00
2022-08-26T11:42:39.722Z,8668.00
2022-08-26T11:43:39.715Z,8608.00
2022-08-26T11:44:39.732Z,8532.00
2022-08-26T11:45:39.709Z,8460.00
2022-08-26T11:46:39.686Z,8408.00
2022-08-26T11:47:39.687Z,8376.00
2022-08-26T11:48:39.673Z,8348.00
2022-08-26T11:49:39.699Z,8340.00
2022-08-26T11:50:39.655Z,8332.00
2022-08-26T11:51:40.547Z,8340.00
2022-08-26T11:52:40.637Z,8360.00
2022-08-26T11:53:39.630Z,8376.00
2022-08-26T11:54:39.657Z,8392.00
2022-08-26T11:55:39.616Z,8416.00
2022-08-26T11:56:39.612Z,8444.00
2022-08-26T11:57:39.606Z,8464.00
2022-08-26T11:58:39.601Z,8496.00
2022-08-26T11:59:39.633Z,8528.00
2022-08-26T12:00:39.583Z,8572.00
2022-08-26T12:01:40.587Z,8612.00
2022-08-26T12:02:39.571Z,8672.00
2022-08-26T12:03:39.602Z,8740.00
2022-08-26T12:04:39.710Z,8796.00
2022-08-26T12:05:39.603Z,8852.00
2022-08-26T12:06:45.199Z,8916.00
2022-08-26T12:07:42.577Z,8972.00
2022-08-26T12:08:39.573Z,9044.00
2022-08-26T12:09:39.545Z,9116.00
2022-08-26T12:10:39.514Z,9196.00
2022-08-26T12:11:39.974Z,9292.00
2022-08-26T12:12:39.499Z,9388.00
2022-08-26T12:13:39.489Z,9488.00
2022-08-26T12:14:39.683Z,9572.00
2022-08-26T12:15:39.476Z,9648.00
2022-08-26T12:16:39.521Z,9728.00
2022-08-26T12:17:39.468Z,9792.00
2022-08-26T12:18:39.458Z,9864.00
2022-08-26T12:19:39.478Z,9936.00
2022-08-26T12:20:39.437Z,10024.00
2022-08-26T12:21:39.432Z,10132.00
2022-08-26T12:22:39.430Z,10268.00
2022-08-26T12:23:39.423Z,10432.00